Portada
METAR-TAF:

METAR-TAF

Aeroports :

Butterworth, Malàisia

latitud: 05-27-58N, longitud: 100-23-28E, altitud: 2 m

Observació

L'informe es va fer fa 51 minuts, a les 07:00 UTC
Vent 6 kt del Oest/Nord-Oest, variant entre Oest/Sud-Oest i Nord
Temperatura 31°C
Humitat 75%
Pressió 1007 hPa
Visibilitat: 7000 m
Escasses núvols a una alçada de 1700 ft, Cumulonimbus.
Núvols disperses a una alçada de 2000 ft
tempesta, xàfecs en les proximitats

METAR: WMKB 080700Z 30006KT 240V350 7000 TS VCSH FEW017CB SCT020 31/26 Q1007 TEMPO 6000 -TSRA

Hora: 15:51 (07:51 UTC)

Pronòstic

L'informe es va fer fa 2 hores i 51 minuts, a les 05:00 UTC
Pronòstic vàlid del 08 a les 06 UTC al 09 a les 06 UTC
Vent 10 kt del Oest/Nord-Oest
Visibilitat 10 km o més
Núvols disperses a una alçada de 2000 ft
Temporalment
l' 08 a les 07 UTC al 08 a les 11 UTC
Visibilitat: 6000 m
Escasses núvols a una alçada de 1700 ft, Cumulonimbus.
tempesta, pluja

TAF: WMKB 080500Z 0806/0906 30010KT 9999 SCT020 TEMPO 0807/0811 6000 -TSRA FEW017CB

Observacions i pronòstics meteorològics de més de 4000 aeroports (METAR i TAF).

Les estacions disponibles són els punts grocs i vermells al mapa.

Posi el ratolí al punt desitjat per veure el nom de l'estació.

Feu clic per veure les observacions i els pronòstics meteorològics.

Per canviar el mapa: feu clic els botons verds amb una creu de color negre per apropar; al botó verd amb un guió per allunyar la imatge; o en les fletxes verdes per a mapes adjacents.


METAR-TAF: